Time;durP1;ratioP1;P1;durP2;ratioP2;P2;SDS_P1;SDS_P2;PMS_P1;PMS_P2;Temp;Humidity;BMP_temperature;BMP_pressure;BME280_temperature;BME280_humidity;BME280_pressure;Samples;Min_cycle;Max_cycle;Signal;HPM_P1;HPM_P2
2021/05/17 00:00:55;;;;;;;3.70;1.50;;;;;;;7.72;86.56;98032.56;5012987;28;20049;-64
2021/05/17 00:03:20;;;;;;;4.13;1.60;;;;;;;7.73;86.58;98034.19;5013414;28;20096;-65
2021/05/17 00:05:46;;;;;;;1.58;1.20;;;;;;;7.76;86.18;98032.88;4995032;28;20045;-64
2021/05/17 00:08:12;;;;;;;3.17;1.50;;;;;;;7.77;86.24;98034.50;4995045;28;20030;-64
2021/05/17 00:10:37;;;;;;;3.67;1.50;;;;;;;7.79;86.49;98032.38;5012882;28;20353;-63
2021/05/17 00:13:03;;;;;;;2.13;1.40;;;;;;;7.80;86.29;98033.19;5013355;28;20033;-65
2021/05/17 00:15:28;;;;;;;2.08;1.42;;;;;;;7.71;87.13;98038.97;5012837;28;20054;-63
2021/05/17 00:17:55;;;;;;;3.00;1.40;;;;;;;7.71;87.29;98046.16;5013284;28;20109;-63
2021/05/17 00:20:21;;;;;;;3.10;1.50;;;;;;;7.73;87.05;98046.72;5012694;28;20046;-63
2021/05/17 00:22:47;;;;;;;2.72;1.55;;;;;;;7.71;86.93;98036.31;5028376;28;20049;-63
2021/05/17 00:25:13;;;;;;;2.30;1.50;;;;;;;7.74;86.95;98043.00;4995232;28;20032;-63
2021/05/17 00:27:38;;;;;;;5.00;1.50;;;;;;;7.79;87.11;98043.06;5013164;28;20030;-63
2021/05/17 00:30:07;;;;;;;4.43;1.55;;;;;;;7.74;86.94;98045.66;5012726;28;20472;-63
2021/05/17 00:32:32;;;;;;;4.05;1.63;;;;;;;7.73;87.22;98038.72;5013034;28;20045;-63
2021/05/17 00:34:58;;;;;;;1.33;1.17;;;;;;;7.76;86.75;98048.88;5012912;28;20041;-63
2021/05/17 00:37:24;;;;;;;3.05;1.80;;;;;;;7.77;87.04;98042.50;5011348;28;20393;-63
2021/05/17 00:39:49;;;;;;;4.68;1.65;;;;;;;7.73;87.25;98036.03;5013099;28;20025;-63
2021/05/17 00:42:15;;;;;;;2.80;1.52;;;;;;;7.68;87.51;98039.47;5012406;28;20393;-63
2021/05/17 00:44:41;;;;;;;4.00;1.65;;;;;;;7.74;87.34;98040.34;5011622;28;20026;-63
2021/05/17 00:47:12;;;;;;;1.50;1.40;;;;;;;7.66;87.90;98040.78;5012405;28;20088;-64
2021/05/17 00:49:39;;;;;;;3.15;1.70;;;;;;;7.74;87.45;98041.13;5012828;28;20061;-63
2021/05/17 00:52:04;;;;;;;4.10;1.60;;;;;;;7.77;87.67;98039.81;5027583;28;20045;-63
2021/05/17 00:54:30;;;;;;;3.53;1.88;;;;;;;7.70;87.55;98037.34;4995158;28;20392;-63
2021/05/17 00:56:55;;;;;;;6.07;1.70;;;;;;;7.73;87.66;98041.38;5012367;28;20034;-63
2021/05/17 00:59:21;;;;;;;1.80;1.60;;;;;;;7.73;87.68;98036.84;5012789;28;20022;-63
2021/05/17 01:01:46;;;;;;;2.88;1.80;;;;;;;7.78;87.49;98039.56;5012281;28;20045;-63
2021/05/17 01:04:12;;;;;;;3.08;1.85;;;;;;;7.74;87.74;98024.34;5012631;28;20472;-63
2021/05/17 01:06:37;;;;;;;3.70;2.00;;;;;;;7.77;87.54;98031.81;5012396;28;20444;-63
2021/05/17 01:09:12;;;;;;;2.10;1.80;;;;;;;7.77;87.71;98029.16;5007568;28;20085;-63
2021/05/17 01:11:38;;;;;;;3.50;1.70;;;;;;;7.76;87.91;98033.69;4992696;28;20101;-63
2021/05/17 01:14:06;;;;;;;4.43;2.08;;;;;;;7.80;87.62;98033.97;4993175;28;20030;-63
2021/05/17 01:16:32;;;;;;;4.00;1.85;;;;;;;7.91;87.72;98040.19;4992691;28;20042;-63
2021/05/17 01:18:58;;;;;;;4.55;1.90;;;;;;;7.81;88.02;98038.25;4995728;28;20177;-63
2021/05/17 01:21:25;;;;;;;2.67;1.88;;;;;;;7.83;87.84;98035.34;4994907;28;20040;-63
2021/05/17 01:23:57;;;;;;;2.20;1.88;;;;;;;7.81;88.12;98040.91;4996774;28;20034;-63
2021/05/17 01:26:24;;;;;;;3.10;2.00;;;;;;;7.81;88.30;98032.09;4996300;28;20438;-63
2021/05/17 01:28:51;;;;;;;4.30;2.00;;;;;;;7.85;87.83;98039.34;4996536;28;20100;-63
2021/05/17 01:31:17;;;;;;;2.75;2.10;;;;;;;7.84;88.27;98040.44;4994859;28;20042;-64
2021/05/17 01:33:43;;;;;;;3.92;1.90;;;;;;;7.76;88.50;98030.19;4996523;28;20030;-63
2021/05/17 01:36:10;;;;;;;3.65;2.03;;;;;;;7.73;88.84;98044.84;4996116;28;20176;-63
2021/05/17 01:38:38;;;;;;;2.92;2.00;;;;;;;7.72;89.06;98039.78;4996394;28;20499;-63
2021/05/17 01:41:07;;;;;;;5.38;2.20;;;;;;;7.74;88.87;98043.00;4995861;28;20093;-63
2021/05/17 01:43:33;;;;;;;2.55;1.92;;;;;;;7.76;88.88;98038.19;4994949;28;20030;-63
2021/05/17 01:46:00;;;;;;;4.13;1.80;;;;;;;7.79;88.82;98048.38;4995842;28;20549;-63
2021/05/17 01:48:25;;;;;;;7.65;2.15;;;;;;;7.80;89.04;98044.66;4996154;28;20041;-63
2021/05/17 01:50:52;;;;;;;3.55;2.17;;;;;;;7.78;89.17;98047.56;4994295;28;20042;-63
2021/05/17 01:53:17;;;;;;;3.70;1.95;;;;;;;7.81;88.91;98050.78;4994777;28;20120;-63
2021/05/17 01:55:43;;;;;;;3.28;1.98;;;;;;;7.78;88.89;98055.56;4995490;28;20042;-64
2021/05/17 01:58:09;;;;;;;4.78;2.03;;;;;;;7.85;88.95;98058.03;4995986;28;20033;-63
2021/05/17 02:00:35;;;;;;;4.07;2.33;;;;;;;7.83;88.83;98046.81;4995740;28;20050;-63
2021/05/17 02:03:00;;;;;;;3.83;2.15;;;;;;;7.81;89.01;98051.56;4995816;28;20441;-63
2021/05/17 02:05:26;;;;;;;4.45;2.28;;;;;;;7.82;88.99;98042.53;4995606;28;20107;-63
2021/05/17 02:07:53;;;;;;;6.38;2.15;;;;;;;7.82;89.40;98044.41;4995862;28;20109;-63
2021/05/17 02:10:18;;;;;;;3.92;2.33;;;;;;;7.85;88.82;98050.03;5014088;28;20092;-63
2021/05/17 02:12:43;;;;;;;3.47;2.05;;;;;;;7.86;89.12;98048.16;5015256;28;20421;-63
2021/05/17 02:15:12;;;;;;;3.10;2.10;;;;;;;7.84;89.11;98051.09;4980864;28;20092;-63
2021/05/17 02:17:37;;;;;;;2.72;1.98;;;;;;;7.84;89.04;98043.09;5015380;28;20029;-63
2021/05/17 02:20:04;;;;;;;2.80;1.85;;;;;;;7.90;88.71;98055.41;5014764;28;20030;-63
2021/05/17 02:22:29;;;;;;;3.08;1.88;;;;;;;7.87;89.15;98049.78;5030372;28;20033;-63
2021/05/17 02:24:55;;;;;;;4.05;1.90;;;;;;;7.80;89.44;98049.19;5015101;28;20026;-63
2021/05/17 02:27:20;;;;;;;4.10;2.00;;;;;;;7.89;89.15;98051.13;5014368;28;20378;-63
2021/05/17 02:29:45;;;;;;;2.33;1.73;;;;;;;7.88;89.07;98041.50;5029784;28;20132;-63
2021/05/17 02:32:21;;;;;;;2.78;1.80;;;;;;;7.96;88.82;98037.56;5014328;28;20033;-63
2021/05/17 02:34:47;;;;;;;3.00;1.98;;;;;;;7.92;88.86;98045.28;5029766;28;20037;-63
2021/05/17 02:37:12;;;;;;;1.88;1.70;;;;;;;7.94;89.02;98051.19;5014454;28;20041;-63
2021/05/17 02:39:38;;;;;;;3.15;1.80;;;;;;;7.87;89.10;98039.91;5014773;28;20022;-63
2021/05/17 02:42:03;;;;;;;2.75;1.90;;;;;;;7.87;89.45;98047.91;4996760;28;20484;-63
2021/05/17 02:44:29;;;;;;;4.40;1.90;;;;;;;7.88;89.51;98046.03;5030126;28;20030;-63
2021/05/17 02:46:58;;;;;;;4.28;2.10;;;;;;;7.86;89.42;98049.00;5013995;28;20029;-63
2021/05/17 02:49:28;;;;;;;5.40;1.88;;;;;;;7.90;89.43;98042.06;5014789;28;20072;-63
2021/05/17 02:51:53;;;;;;;3.30;1.90;;;;;;;7.84;89.76;98044.94;5014018;28;20041;-63
2021/05/17 02:54:32;;;;;;;3.65;2.08;;;;;;;7.87;89.67;98041.78;5013153;28;20034;-63
2021/05/17 02:56:57;;;;;;;3.70;2.10;;;;;;;7.83;90.02;98046.81;4996367;28;20092;-63
2021/05/17 03:00:00;;;;;;;4.38;2.10;;;;;;;7.89;89.74;98037.81;5014430;28;20038;-63
2021/05/17 03:02:26;;;;;;;7.10;2.17;;;;;;;7.88;89.58;98041.50;5014048;28;20054;-63
2021/05/17 03:04:51;;;;;;;3.03;2.00;;;;;;;7.91;89.57;98043.69;5013175;28;20491;-63
2021/05/17 03:07:17;;;;;;;3.08;2.03;;;;;;;7.87;89.77;98045.25;4996106;28;20053;-63
2021/05/17 03:09:45;;;;;;;4.45;2.17;;;;;;;7.92;89.50;98041.81;5012815;28;20102;-63
2021/05/17 03:12:11;;;;;;;3.53;2.30;;;;;;;7.89;89.82;98037.81;5012528;28;20508;-63
2021/05/17 03:14:36;;;;;;;4.50;2.35;;;;;;;7.91;89.40;98041.03;5014007;28;20034;-63
2021/05/17 03:17:02;;;;;;;5.75;2.10;;;;;;;7.87;89.56;98034.56;5012049;28;20034;-63
2021/05/17 03:19:28;;;;;;;3.58;2.13;;;;;;;7.80;89.79;98033.97;4996448;28;20037;-63
2021/05/17 03:21:56;;;;;;;4.65;2.35;;;;;;;7.83;89.68;98044.13;5013647;28;20026;-63
2021/05/17 03:24:22;;;;;;;3.85;2.30;;;;;;;7.77;89.84;98035.28;5029005;28;20030;-63
2021/05/17 03:26:48;;;;;;;6.07;2.40;;;;;;;7.70;89.97;98048.03;5013390;28;20038;-63
2021/05/17 03:29:14;;;;;;;3.28;2.50;;;;;;;7.75;89.87;98056.06;5013936;28;20493;-63
2021/05/17 03:31:39;;;;;;;6.47;2.63;;;;;;;7.76;89.53;98062.19;5013192;28;20034;-63
2021/05/17 03:34:05;;;;;;;4.38;2.92;;;;;;;7.77;89.84;98055.81;4996115;28;20022;-63
2021/05/17 03:36:30;;;;;;;3.17;2.47;;;;;;;7.85;88.84;98047.34;5013233;28;20108;-63
2021/05/17 03:38:55;;;;;;;7.80;2.78;;;;;;;7.84;89.05;98067.09;5013876;28;20404;-63
2021/05/17 03:41:21;;;;;;;4.75;2.63;;;;;;;7.83;88.81;98064.69;4994772;28;20437;-63
2021/05/17 03:43:46;;;;;;;4.65;2.67;;;;;;;7.90;88.36;98066.06;5013639;28;20157;-64
2021/05/17 03:46:12;;;;;;;5.78;2.30;;;;;;;7.89;88.47;98069.00;5012130;28;20033;-64
2021/05/17 03:48:43;;;;;;;6.85;2.63;;;;;;;7.93;88.47;98065.56;5028933;28;20033;-64
2021/05/17 03:51:09;;;;;;;4.57;2.55;;;;;;;7.99;87.77;98066.44;4996582;28;20037;-63
2021/05/17 03:53:35;;;;;;;3.60;2.40;;;;;;;7.97;87.73;98082.69;5013641;28;20487;-63
2021/05/17 03:56:00;;;;;;;4.50;2.45;;;;;;;7.97;88.07;98080.03;5013076;28;20040;-63
2021/05/17 03:58:26;;;;;;;5.68;2.60;;;;;;;8.00;87.82;98092.84;5013419;28;20026;-64
2021/05/17 04:00:51;;;;;;;4.15;2.40;;;;;;;8.03;87.72;98096.06;5013072;28;20432;-64
2021/05/17 04:03:19;;;;;;;4.78;2.45;;;;;;;8.11;87.30;98084.94;5012021;28;20365;-63
2021/05/17 04:13:50;;;;;;;7.03;2.03;;;;;;;8.30;87.07;98086.16;5013217;28;20033;-63
2021/05/17 04:16:15;;;;;;;2.92;1.98;;;;;;;8.33;87.06;98090.19;5012748;28;20038;-63
2021/05/17 04:18:42;;;;;;;4.15;2.20;;;;;;;8.43;86.76;98096.41;5013011;28;20040;-63
2021/05/17 04:21:07;;;;;;;7.30;2.10;;;;;;;8.45;86.40;98103.41;5012704;28;20056;-63
2021/05/17 04:23:32;;;;;;;3.25;2.00;;;;;;;8.30;86.95;98091.50;5028271;28;20030;-63
2021/05/17 04:25:58;;;;;;;4.07;2.30;;;;;;;8.30;87.24;98099.50;5011394;28;20089;-64
2021/05/17 04:28:23;;;;;;;2.78;2.00;;;;;;;8.34;86.72;98087.25;4995530;28;20026;-63
2021/05/17 04:30:49;;;;;;;3.55;2.30;;;;;;;8.34;87.08;98086.47;5012584;28;20042;-63
2021/05/17 04:33:14;;;;;;;8.00;2.10;;;;;;;8.32;87.03;98088.59;5013260;28;20026;-63
2021/05/17 04:35:40;;;;;;;3.78;2.13;;;;;;;8.38;86.40;98099.03;5012429;28;20038;-63
2021/05/17 04:38:05;;;;;;;2.65;1.90;;;;;;;8.47;85.79;98096.72;5013051;28;20492;-64
2021/05/17 04:40:31;;;;;;;5.47;2.20;;;;;;;8.52;85.11;98106.66;5012379;28;20431;-63
2021/05/17 04:42:57;;;;;;;3.20;2.00;;;;;;;10.29;78.38;98098.75;5012874;28;20097;-63
2021/05/17 04:45:24;;;;;;;3.15;1.67;;;;;;;10.04;77.74;98094.16;5012537;28;20038;-63
2021/05/17 04:47:51;;;;;;;5.53;2.08;;;;;;;11.26;74.15;98100.44;5012874;28;20022;-63
2021/05/17 04:50:16;;;;;;;3.20;1.70;;;;;;;11.13;73.24;98091.94;5012417;28;20112;-64
2021/05/17 04:52:42;;;;;;;5.05;1.80;;;;;;;11.33;72.23;98099.09;4996254;28;20461;-63
2021/05/17 04:55:08;;;;;;;4.60;1.85;;;;;;;10.67;74.85;98099.28;4998476;28;20084;-63
2021/05/17 04:57:34;;;;;;;4.93;2.03;;;;;;;10.34;76.39;98101.44;5016630;28;20053;-63
2021/05/17 04:59:59;;;;;;;3.03;1.70;;;;;;;11.51;71.92;98118.34;5016862;28;20025;-63
2021/05/17 05:02:25;;;;;;;3.10;1.55;;;;;;;13.80;63.14;98112.00;5016180;28;20033;-64
2021/05/17 05:04:51;;;;;;;3.97;1.50;;;;;;;11.60;71.33;98122.81;4999205;28;20026;-63
2021/05/17 05:07:18;;;;;;;2.97;1.40;;;;;;;10.46;75.27;98134.13;5031085;28;20107;-65
2021/05/17 05:09:44;;;;;;;3.25;1.50;;;;;;;9.83;77.98;98128.91;4998930;28;20104;-63
2021/05/17 05:12:09;;;;;;;3.20;1.80;;;;;;;10.02;77.52;98137.25;5016190;28;20041;-63
2021/05/17 05:14:34;;;;;;;4.00;1.70;;;;;;;10.09;77.98;98132.44;5016191;28;20439;-63
2021/05/17 05:17:00;;;;;;;3.30;1.77;;;;;;;11.95;72.55;98139.84;5016041;28;20042;-63
2021/05/17 05:19:25;;;;;;;3.53;1.63;;;;;;;11.50;71.62;98130.13;4999003;28;20142;-63
2021/05/17 05:21:54;;;;;;;3.17;1.63;;;;;;;11.61;72.38;98142.44;5015987;28;20432;-64
2021/05/17 05:24:19;;;;;;;4.03;1.50;;;;;;;10.77;75.12;98131.41;5031086;28;20030;-63
2021/05/17 05:27:01;;;;;;;3.88;1.55;;;;;;;10.35;76.63;98127.94;5015674;28;20037;-64
2021/05/17 05:30:13;;;;;;;4.80;1.80;;;;;;;14.53;62.31;98139.50;5016170;28;20076;-63
2021/05/17 05:34:43;;;;;;;5.93;1.80;;;;;;;14.13;62.53;98147.91;5015851;28;20425;-63
2021/05/17 05:37:08;;;;;;;6.78;1.90;;;;;;;15.40;58.55;98149.56;5015417;28;20042;-63
2021/05/17 05:39:34;;;;;;;4.03;1.45;;;;;;;15.30;58.59;98147.03;5016072;28;20026;-64
2021/05/17 05:41:59;;;;;;;3.25;1.50;;;;;;;16.13;56.22;98146.97;5015496;28;20137;-63
2021/05/17 05:44:25;;;;;;;2.90;1.60;;;;;;;15.86;56.95;98155.94;5015843;28;20113;-64
2021/05/17 05:46:50;;;;;;;4.00;1.50;;;;;;;15.73;57.33;98144.06;5015385;28;20088;-63
2021/05/17 05:49:16;;;;;;;6.20;1.40;;;;;;;14.56;60.22;98144.31;5016149;28;20026;-64
2021/05/17 05:51:41;;;;;;;4.95;1.38;;;;;;;14.25;61.41;98142.06;5030634;28;20034;-63
2021/05/17 05:54:07;;;;;;;4.07;1.50;;;;;;;14.61;60.16;98149.63;5015849;28;20034;-64
2021/05/17 05:56:32;;;;;;;6.03;1.70;;;;;;;14.00;62.06;98154.81;5015146;28;20480;-66
2021/05/17 05:58:58;;;;;;;3.80;1.45;;;;;;;12.39;66.01;98152.47;4998354;28;20064;-64
2021/05/17 06:01:23;;;;;;;5.28;1.48;;;;;;;12.78;65.79;98145.41;4997641;28;20579;-64
2021/05/17 06:03:49;;;;;;;3.58;1.40;;;;;;;11.91;69.45;98146.09;5015063;28;20036;-64
2021/05/17 06:06:14;;;;;;;6.18;1.80;;;;;;;11.32;71.23;98148.44;5029625;28;20500;-66
2021/05/17 06:08:43;;;;;;;3.17;1.40;;;;;;;11.17;72.35;98140.44;5015591;28;20065;-63
2021/05/17 06:11:09;;;;;;;7.75;1.65;;;;;;;11.31;72.79;98146.84;4997892;28;20420;-64
2021/05/17 06:13:37;;;;;;;4.68;1.60;;;;;;;11.15;73.33;98150.63;5015441;28;20528;-64
2021/05/17 06:16:02;;;;;;;5.05;2.00;;;;;;;11.35;71.62;98145.22;5029685;28;20065;-64
2021/05/17 06:18:28;;;;;;;5.15;1.65;;;;;;;11.87;71.24;98154.66;5030433;28;20030;-64
2021/05/17 06:20:54;;;;;;;3.28;1.52;;;;;;;11.92;70.80;98155.72;5015000;28;20030;-63
2021/05/17 06:23:20;;;;;;;5.57;1.40;;;;;;;11.71;70.75;98158.50;5015086;28;20022;-63
2021/05/17 06:25:46;;;;;;;4.90;1.70;;;;;;;12.64;67.43;98151.47;5029786;28;20070;-63
2021/05/17 06:28:11;;;;;;;3.28;1.80;;;;;;;13.82;63.66;98161.78;5014022;28;20469;-63
2021/05/17 06:30:45;;;;;;;2.58;1.40;;;;;;;14.48;58.74;98153.03;5014581;28;20077;-63
2021/05/17 06:33:10;;;;;;;4.93;1.40;;;;;;;14.18;61.41;98152.44;5015021;28;20112;-63
2021/05/17 06:35:42;;;;;;;3.22;1.52;;;;;;;13.47;63.92;98162.22;4997272;28;20435;-63
2021/05/17 06:38:07;;;;;;;6.03;1.77;;;;;;;14.54;60.24;98157.28;4997367;28;20495;-63
2021/05/17 06:40:33;;;;;;;5.10;1.60;;;;;;;16.58;53.46;98171.34;4996962;28;20045;-63
2021/05/17 06:42:59;;;;;;;4.28;1.60;;;;;;;17.52;51.01;98174.09;5014834;28;20030;-63
2021/05/17 06:45:24;;;;;;;3.75;1.40;;;;;;;15.93;55.51;98172.53;5013277;28;20041;-63
2021/05/17 06:47:50;;;;;;;2.38;1.20;;;;;;;13.92;62.29;98177.00;5014675;28;20034;-63
2021/05/17 06:50:16;;;;;;;5.80;1.48;;;;;;;13.63;62.93;98176.31;5029608;28;20433;-63
2021/05/17 06:52:41;;;;;;;3.25;1.30;;;;;;;13.08;65.18;98174.72;5014799;28;20392;-63
2021/05/17 06:55:15;;;;;;;5.10;1.60;;;;;;;13.43;64.27;98183.53;5014185;28;20029;-63
2021/05/17 07:00:31;;;;;;;6.38;2.13;;;;;;;12.56;65.60;98170.09;5014077;28;20519;-63
2021/05/17 07:03:01;;;;;;;3.67;1.63;;;;;;;12.66;65.56;98165.44;5014690;28;20109;-63
2021/05/17 07:05:27;;;;;;;4.70;1.90;;;;;;;12.27;67.66;98185.06;5013839;28;20030;-63
2021/05/17 07:13:05;;;;;;;5.00;1.60;;;;;;;14.10;61.06;98177.31;5014352;28;20039;-63
2021/05/17 07:15:31;;;;;;;4.63;1.90;;;;;;;13.45;62.71;98172.47;5028833;28;20034;-63
2021/05/17 07:17:56;;;;;;;4.72;1.98;;;;;;;13.19;63.73;98180.00;5029043;28;20025;-63
2021/05/17 07:20:29;;;;;;;6.95;1.80;;;;;;;12.77;65.28;98186.84;4996127;28;20038;-63
2021/05/17 07:25:39;;;;;;;5.45;1.85;;;;;;;13.42;64.61;98187.31;5013703;28;20418;-63
2021/05/17 07:28:04;;;;;;;6.05;1.65;;;;;;;13.03;66.14;98185.53;5014124;28;20026;-63
2021/05/17 07:30:32;;;;;;;8.18;1.70;;;;;;;13.01;66.90;98186.91;5013419;28;20485;-63
2021/05/17 07:32:57;;;;;;;2.92;1.45;;;;;;;13.12;65.60;98188.41;4996786;28;20026;-63
2021/05/17 07:35:23;;;;;;;7.07;2.10;;;;;;;12.29;66.87;98190.94;5013365;28;20062;-62
2021/05/17 07:37:48;;;;;;;6.18;1.92;;;;;;;12.17;68.20;98185.13;5013791;28;20528;-63
2021/05/17 07:40:14;;;;;;;4.32;1.55;;;;;;;12.01;70.50;98186.31;5013537;28;20022;-63
2021/05/17 07:42:39;;;;;;;2.92;1.25;;;;;;;11.40;71.06;98179.25;5013885;28;20464;-62
2021/05/17 07:45:05;;;;;;;5.18;1.75;;;;;;;11.79;71.83;98190.13;5013237;28;20357;-63
2021/05/17 07:47:31;;;;;;;6.18;1.65;;;;;;;11.79;70.14;98189.31;5028751;28;20034;-63
2021/05/17 07:49:56;;;;;;;3.38;1.60;;;;;;;11.66;71.12;98196.09;5013641;28;20049;-62
2021/05/17 07:52:22;;;;;;;6.22;1.80;;;;;;;11.29;73.06;98196.47;5013124;28;20038;-62
2021/05/17 07:54:47;;;;;;;5.00;1.67;;;;;;;11.18;73.25;98206.41;5028578;28;20033;-63
2021/05/17 07:57:14;;;;;;;5.68;1.85;;;;;;;10.91;74.67;98204.06;5013027;28;20068;-63
2021/05/17 07:59:39;;;;;;;4.05;1.73;;;;;;;11.46;72.99;98202.34;5013312;28;20030;-63
2021/05/17 08:02:05;;;;;;;5.55;1.80;;;;;;;11.33;73.28;98209.09;5012978;28;20134;-62
2021/05/17 08:04:30;;;;;;;3.15;1.52;;;;;;;11.30;73.00;98214.16;4995913;28;20044;-62
2021/05/17 08:06:56;;;;;;;4.32;1.40;;;;;;;11.21;73.40;98214.72;5012860;28;20485;-62
2021/05/17 08:09:21;;;;;;;4.25;1.60;;;;;;;11.25;73.57;98212.28;5013227;28;20038;-63
2021/05/17 08:11:47;;;;;;;4.85;1.38;;;;;;;10.98;74.96;98221.47;5012600;28;20176;-62
2021/05/17 08:14:13;;;;;;;3.83;1.60;;;;;;;10.92;76.54;98230.56;4995624;28;20088;-63
2021/05/17 08:16:38;;;;;;;2.53;1.10;;;;;;;10.50;77.88;98223.59;5012779;28;20034;-63
2021/05/17 08:19:04;;;;;;;2.55;1.38;;;;;;;10.11;76.35;98221.34;5013254;28;20033;-63
2021/05/17 08:21:29;;;;;;;2.15;1.10;;;;;;;9.86;79.99;98229.28;5027962;28;20038;-63
2021/05/17 08:23:57;;;;;;;3.13;1.17;;;;;;;9.67;81.01;98235.09;5013186;28;20029;-63
2021/05/17 08:26:22;;;;;;;1.60;1.20;;;;;;;9.58;79.45;98233.19;5012837;28;20421;-63
2021/05/17 08:28:47;;;;;;;1.13;1.00;;;;;;;9.69;80.14;98224.94;5000967;28;20029;-63
2021/05/17 08:31:16;;;;;;;3.35;1.10;;;;;;;9.70;80.35;98226.53;5019154;28;20065;-63
2021/05/17 08:33:41;;;;;;;3.53;1.20;;;;;;;10.01;78.58;98228.53;5019700;28;20068;-64
2021/05/17 08:36:07;;;;;;;1.10;1.00;;;;;;;10.28;77.36;98231.03;5034250;28;20456;-64
2021/05/17 08:38:32;;;;;;;2.00;1.10;;;;;;;10.60;77.47;98233.50;5019499;28;20472;-64
2021/05/17 08:40:58;;;;;;;1.38;0.98;;;;;;;10.32;76.75;98237.50;5018872;28;20034;-64
2021/05/17 08:43:24;;;;;;;1.00;0.68;;;;;;;10.02;78.81;98227.47;5001651;28;20046;-64
2021/05/17 08:45:49;;;;;;;1.65;0.93;;;;;;;10.25;77.16;98236.91;5034238;28;20038;-64
2021/05/17 08:48:15;;;;;;;1.63;0.95;;;;;;;9.92;79.19;98229.03;5019359;28;20026;-65
2021/05/17 08:50:40;;;;;;;1.15;1.05;;;;;;;10.40;76.48;98242.31;5018880;28;20038;-64
2021/05/17 08:53:06;;;;;;;1.27;1.00;;;;;;;12.26;70.14;98242.56;5001713;28;20033;-64
2021/05/17 08:55:31;;;;;;;1.40;0.90;;;;;;;13.83;65.43;98246.09;5019002;28;20042;-66
2021/05/17 08:57:57;;;;;;;2.15;0.90;;;;;;;14.01;64.78;98237.25;5034818;28;20034;-64
2021/05/17 09:00:23;;;;;;;0.95;0.70;;;;;;;15.20;62.19;98239.81;5018987;28;20034;-63
2021/05/17 09:02:48;;;;;;;1.50;0.82;;;;;;;13.78;62.30;98238.88;5019329;28;20022;-65
2021/05/17 09:05:14;;;;;;;1.08;0.95;;;;;;;13.24;67.21;98244.53;5018994;28;20029;-65
2021/05/17 09:07:41;;;;;;;1.20;0.95;;;;;;;11.97;72.00;98236.25;5019423;28;20033;-63
2021/05/17 09:10:13;;;;;;;1.92;0.95;;;;;;;12.03;73.15;98243.19;5018682;28;20477;-65
2021/05/17 09:12:56;;;;;;;1.27;0.93;;;;;;;11.57;74.33;98232.63;5019364;28;20527;-63
2021/05/17 09:15:46;;;;;;;2.75;1.20;;;;;;;11.92;71.62;98242.44;5019053;28;20048;-63
2021/05/17 09:18:16;;;;;;;2.05;1.10;;;;;;;12.73;71.00;98237.69;5019337;28;20068;-63
2021/05/17 09:20:43;;;;;;;4.25;1.40;;;;;;;13.66;68.19;98235.78;5018948;28;20064;-65
2021/05/17 09:23:15;;;;;;;5.10;1.58;;;;;;;11.74;74.40;98237.66;5034023;28;20060;-65
2021/05/17 09:26:10;;;;;;;2.50;1.30;;;;;;;11.86;73.61;98244.38;5018758;28;20484;-64
2021/05/17 09:28:38;;;;;;;4.28;1.50;;;;;;;11.61;73.68;98231.00;5019267;28;20033;-64
2021/05/17 09:31:24;;;;;;;5.82;1.52;;;;;;;11.69;75.02;98233.13;5018672;28;20168;-64
2021/05/17 09:33:53;;;;;;;2.45;1.15;;;;;;;11.90;72.14;98235.75;5018995;28;20038;-64
2021/05/17 09:36:31;;;;;;;2.80;1.33;;;;;;;11.64;73.68;98241.97;5018538;28;20045;-65
2021/05/17 09:39:01;;;;;;;2.20;1.25;;;;;;;11.80;70.94;98244.63;5018105;28;20059;-64
2021/05/17 09:41:59;;;;;;;2.70;1.20;;;;;;;12.42;70.27;98234.41;4998148;28;20038;-64
2021/05/17 09:44:27;;;;;;;4.70;1.33;;;;;;;13.04;67.71;98224.78;4976662;28;20050;-64
2021/05/17 09:46:56;;;;;;;2.45;1.45;;;;;;;13.10;68.02;98239.81;5015395;28;20034;-64
2021/05/17 09:49:37;;;;;;;2.13;1.20;;;;;;;13.02;66.21;98237.72;5015832;28;20032;-65
2021/05/17 09:52:16;;;;;;;3.55;1.20;;;;;;;13.90;64.04;98227.66;5015530;28;20041;-64
2021/05/17 09:54:45;;;;;;;3.78;1.98;;;;;;;15.16;61.73;98221.81;5015801;28;20026;-64
2021/05/17 09:57:11;;;;;;;4.05;1.30;;;;;;;14.53;62.96;98215.81;5015238;28;20038;-64
2021/05/17 09:59:39;;;;;;;2.33;1.40;;;;;;;15.89;59.94;98217.47;4998033;28;20022;-64
2021/05/17 10:02:05;;;;;;;1.60;1.13;;;;;;;14.54;62.51;98216.59;5014010;28;20076;-64
2021/05/17 10:04:30;;;;;;;1.83;1.10;;;;;;;13.83;64.47;98224.53;4998009;28;20389;-63
2021/05/17 10:06:56;;;;;;;3.22;1.40;;;;;;;13.61;64.88;98219.69;5015023;28;20100;-63
2021/05/17 10:09:22;;;;;;;2.47;1.30;;;;;;;12.94;64.70;98224.88;5015429;28;20042;-63
2021/05/17 10:11:48;;;;;;;2.17;1.00;;;;;;;13.41;65.01;98220.72;4997432;28;20038;-64
2021/05/17 10:14:13;;;;;;;2.80;1.15;;;;;;;13.15;64.99;98220.94;5014173;28;20041;-63
2021/05/17 10:16:40;;;;;;;1.33;0.85;;;;;;;13.88;62.39;98221.78;5013952;28;20030;-63
2021/05/17 10:19:05;;;;;;;2.13;1.10;;;;;;;14.14;62.34;98210.69;5014239;28;20025;-63
2021/05/17 10:21:31;;;;;;;2.83;1.30;;;;;;;14.48;59.12;98207.78;5030218;28;20038;-63
2021/05/17 10:23:57;;;;;;;2.75;1.25;;;;;;;15.80;54.46;98214.69;5015319;28;20026;-63
2021/05/17 10:26:25;;;;;;;3.40;1.00;;;;;;;15.69;54.99;98207.84;5014716;28;20042;-63
2021/05/17 10:28:59;;;;;;;1.90;1.08;;;;;;;15.99;56.06;98205.66;5030678;28;20033;-62
2021/05/17 10:31:25;;;;;;;8.38;1.30;;;;;;;15.96;57.52;98202.44;5012944;28;20036;-62
2021/05/17 10:34:00;;;;;;;4.07;1.40;;;;;;;16.17;54.18;98210.94;5015030;28;20101;-62
2021/05/17 10:36:56;;;;;;;1.30;0.80;;;;;;;16.56;51.65;98201.41;5014648;28;20038;-63
2021/05/17 10:39:27;;;;;;;3.65;1.15;;;;;;;15.11;55.49;98203.81;5015052;28;20385;-62
2021/05/17 10:48:18;;;;;;;1.88;1.10;;;;;;;14.54;62.10;98211.22;4973193;28;20121;-63
2021/05/17 10:51:06;;;;;;;3.08;1.10;;;;;;;14.14;64.36;98218.75;4972493;28;20042;-63
2021/05/17 10:53:49;;;;;;;5.00;1.60;;;;;;;15.18;59.99;98212.31;5010009;28;20104;-62
2021/05/17 11:02:24;;;;;;;2.72;0.98;;;;;;;15.07;58.62;98213.59;5014134;28;20412;-63
2021/05/17 11:04:49;;;;;;;4.78;1.75;;;;;;;15.36;57.75;98209.84;5014340;28;20465;-63
2021/05/17 11:07:24;;;;;;;3.78;1.35;;;;;;;15.78;56.32;98219.59;5013860;28;20049;-63
2021/05/17 11:10:09;;;;;;;4.82;1.50;;;;;;;15.44;57.20;98217.25;5014069;28;20052;-62
2021/05/17 11:12:37;;;;;;;1.98;1.13;;;;;;;15.40;57.14;98232.44;5014212;28;20046;-62
2021/05/17 11:15:12;;;;;;;1.30;1.10;;;;;;;16.11;54.41;98231.06;5013559;28;20065;-63
2021/05/17 11:18:05;;;;;;;2.95;1.30;;;;;;;15.92;55.11;98228.47;5014268;28;20136;-62
2021/05/17 11:23:05;;;;;;;2.53;1.10;;;;;;;17.13;51.31;98224.41;5014060;28;20398;-62
2021/05/17 11:26:13;;;;;;;4.07;1.30;;;;;;;16.55;52.28;98221.44;5013596;28;20042;-63
2021/05/17 11:31:04;;;;;;;1.67;1.05;;;;;;;16.35;53.52;98230.03;5013543;28;20473;-63
2021/05/17 11:33:58;;;;;;;5.20;1.58;;;;;;;15.44;56.31;98226.16;5013867;28;20048;-63
2021/05/17 11:36:33;;;;;;;2.83;1.63;;;;;;;15.81;55.90;98215.50;5013378;28;20384;-63
2021/05/17 11:39:15;;;;;;;4.18;1.40;;;;;;;15.32;57.17;98210.44;5013679;28;20034;-63
2021/05/17 11:41:45;;;;;;;3.33;1.35;;;;;;;15.54;56.94;98212.44;5013254;28;20124;-63
2021/05/17 11:44:52;;;;;;;2.90;1.23;;;;;;;15.07;56.60;98219.78;5014016;28;20021;-63
2021/05/17 11:47:19;;;;;;;4.15;1.10;;;;;;;15.12;57.57;98216.19;5025062;28;20042;-63
2021/05/17 11:49:44;;;;;;;3.22;1.38;;;;;;;14.95;57.51;98224.88;4996071;28;20071;-64
2021/05/17 11:52:11;;;;;;;3.85;1.27;;;;;;;14.95;57.44;98226.75;5013132;28;20117;-63
2021/05/17 11:54:49;;;;;;;3.75;1.15;;;;;;;14.45;58.08;98233.41;5013408;28;20025;-63
2021/05/17 11:57:14;;;;;;;3.47;1.40;;;;;;;14.12;61.90;98239.81;5013109;28;20045;-63
2021/05/17 11:59:40;;;;;;;3.08;1.20;;;;;;;13.74;65.09;98245.13;5013577;28;20021;-63
2021/05/17 12:02:06;;;;;;;5.55;1.35;;;;;;;13.24;65.87;98245.31;5012217;28;20037;-63
2021/05/17 12:04:36;;;;;;;2.05;1.10;;;;;;;12.50;68.93;98252.63;5013360;28;20236;-63
2021/05/17 12:07:05;;;;;;;1.70;1.10;;;;;;;12.24;71.37;98268.09;5012857;28;20535;-64
2021/05/17 12:09:32;;;;;;;5.60;1.45;;;;;;;11.90;71.45;98267.97;5013058;28;20145;-64
2021/05/17 12:12:03;;;;;;;2.05;1.10;;;;;;;11.74;72.01;98262.63;5012751;28;20042;-64
2021/05/17 12:14:29;;;;;;;2.63;1.23;;;;;;;11.92;71.41;98268.50;5013173;28;20380;-64
2021/05/17 12:17:16;;;;;;;4.10;1.10;;;;;;;12.40;72.30;98263.44;5012817;28;20121;-64
2021/05/17 12:19:45;;;;;;;2.60;1.20;;;;;;;13.49;71.09;98273.91;5028434;28;20060;-64